createdAt,value
2018-12-01T06:12:35.808Z,15.70
2018-12-01T06:15:05.209Z,17.20
2018-12-01T06:17:34.504Z,17.40
2018-12-01T06:20:04.147Z,17.60
2018-12-01T06:22:33.297Z,17.80
2018-12-01T06:25:02.029Z,18.00
2018-12-01T06:27:31.609Z,18.20
2018-12-01T06:29:59.851Z,18.30
2018-12-01T06:32:28.949Z,18.40
2018-12-01T06:34:58.133Z,18.60
2018-12-01T06:37:27.168Z,18.70
2018-12-01T06:39:56.584Z,18.90
2018-12-01T06:42:25.325Z,19.00
2018-12-01T06:44:54.744Z,19.10
2018-12-01T06:47:23.889Z,19.20
2018-12-01T06:49:52.987Z,19.40
2018-12-01T06:52:22.063Z,19.50
2018-12-01T06:54:50.799Z,19.60
2018-12-01T06:57:19.876Z,19.70
2018-12-01T06:59:48.599Z,19.80
2018-12-01T07:02:17.455Z,19.90
2018-12-01T07:04:46.281Z,20.00
2018-12-01T07:07:15.039Z,20.10
2018-12-01T07:09:44.242Z,20.20
2018-12-01T07:12:13.632Z,20.20
2018-12-01T07:14:43.140Z,20.30
2018-12-01T07:17:11.862Z,20.40
2018-12-01T07:19:41.365Z,20.50
2018-12-01T07:22:10.089Z,20.50
2018-12-01T07:24:39.248Z,20.60
2018-12-01T07:27:08.080Z,20.60
2018-12-01T07:29:37.092Z,20.70
2018-12-01T07:32:05.924Z,20.70
2018-12-01T07:34:34.746Z,20.80
2018-12-01T07:37:03.499Z,20.90
2018-12-01T07:39:32.521Z,20.90
2018-12-01T07:42:01.231Z,21.00
2018-12-01T07:44:29.941Z,21.00
2018-12-01T07:46:58.693Z,21.10
2018-12-01T07:49:27.822Z,21.10
2018-12-01T07:51:56.945Z,21.10
2018-12-01T07:54:26.039Z,21.20
2018-12-01T07:56:55.508Z,21.20
2018-12-01T07:59:24.323Z,21.30
2018-12-01T08:01:53.589Z,21.30
2018-12-01T08:04:22.581Z,21.30
2018-12-01T08:06:51.428Z,21.30
2018-12-01T08:09:20.213Z,21.30
2018-12-01T08:11:48.971Z,21.30
2018-12-01T08:14:18.185Z,21.30
2018-12-01T08:16:47.630Z,21.30
2018-12-01T08:19:16.350Z,21.30
2018-12-01T08:21:45.078Z,21.20
2018-12-01T08:24:14.070Z,21.20
2018-12-01T08:26:43.744Z,21.20
2018-12-01T08:29:12.915Z,21.10
2018-12-01T08:31:41.707Z,21.00
2018-12-01T08:34:10.963Z,21.00
2018-12-01T08:36:39.655Z,20.90
2018-12-01T08:39:09.416Z,20.90
2018-12-01T08:41:38.637Z,20.80
2018-12-01T08:44:07.752Z,20.80
2018-12-01T08:46:36.443Z,20.70
2018-12-01T08:49:06.452Z,20.70
2018-12-01T08:51:35.636Z,20.60
2018-12-01T08:54:04.775Z,20.50
2018-12-01T08:56:33.543Z,20.50
2018-12-01T08:59:03.049Z,20.40
2018-12-01T09:01:32.468Z,20.40
2018-12-01T09:04:01.620Z,20.30
2018-12-01T09:06:30.808Z,20.30
2018-12-01T09:08:59.668Z,20.20
2018-12-01T09:11:28.551Z,20.20
2018-12-01T09:13:57.596Z,20.10
2018-12-01T09:16:27.216Z,20.10
2018-12-01T09:18:57.256Z,20.00
2018-12-01T09:21:27.552Z,20.00
2018-12-01T09:23:56.460Z,20.00
2018-12-01T09:26:25.311Z,19.90
2018-12-01T09:28:54.125Z,20.00
2018-12-01T09:31:23.740Z,20.00
2018-12-01T09:33:52.416Z,19.90
2018-12-01T09:36:21.503Z,19.90
2018-12-01T09:38:51.190Z,19.90
2018-12-01T09:41:20.938Z,19.90
2018-12-01T09:43:50.028Z,19.90
2018-12-01T09:46:19.445Z,19.90
2018-12-01T09:48:49.416Z,19.80
2018-12-01T09:51:19.349Z,19.80
2018-12-01T09:53:49.861Z,19.80
2018-12-01T09:56:22.216Z,19.80
2018-12-01T09:58:50.935Z,19.80
2018-12-01T10:01:20.009Z,19.80
2018-12-01T10:03:50.675Z,19.70
2018-12-01T10:06:22.112Z,19.70
2018-12-01T10:08:50.967Z,19.70
2018-12-01T10:11:21.052Z,19.70
2018-12-01T10:13:49.793Z,19.60
2018-12-01T10:16:19.494Z,19.60
2018-12-01T10:18:49.042Z,19.60
2018-12-01T10:21:18.430Z,19.60
2018-12-01T10:23:47.743Z,19.60
2018-12-01T10:28:46.539Z,19.50
2018-12-01T10:31:15.704Z,19.50
2018-12-01T10:33:45.132Z,19.40
2018-12-01T10:36:13.856Z,19.40
2018-12-01T10:38:43.260Z,19.40
2018-12-01T10:41:13.768Z,19.40
2018-12-01T10:43:42.631Z,19.30
2018-12-01T10:46:11.732Z,19.30
2018-12-01T11:15:34.214Z,18.70
2018-12-01T11:18:03.591Z,18.70
2018-12-01T11:20:32.980Z,18.70
2018-12-01T11:23:04.624Z,18.70
2018-12-01T11:25:33.861Z,18.70
2018-12-01T11:28:02.936Z,18.70
2018-12-01T11:30:31.828Z,18.70
2018-12-01T11:33:01.090Z,18.80
2018-12-01T11:35:30.204Z,18.80
2018-12-01T11:37:59.236Z,18.80
2018-12-01T11:40:28.064Z,18.80
2018-12-01T11:42:57.936Z,18.80
2018-12-01T11:45:26.667Z,18.80
2018-12-01T11:47:55.892Z,18.80
2018-12-01T11:50:24.737Z,18.80
2018-12-01T11:52:53.879Z,18.80
2018-12-01T11:55:23.867Z,18.80
2018-12-01T11:57:54.417Z,18.80
2018-12-01T12:00:26.531Z,18.90
2018-12-01T12:02:56.210Z,18.90
2018-12-01T12:05:25.255Z,18.90
2018-12-01T12:08:05.161Z,18.90
2018-12-01T12:10:34.324Z,18.90
2018-12-01T12:13:03.320Z,18.90
2018-12-01T12:15:32.183Z,18.90
2018-12-01T12:18:02.928Z,18.90
2018-12-01T12:20:32.608Z,19.00
2018-12-01T12:25:31.061Z,19.00
2018-12-01T12:28:00.613Z,19.00
2018-12-01T12:30:29.668Z,19.00
2018-12-01T12:32:59.101Z,19.00
2018-12-01T12:35:28.286Z,19.00
2018-12-01T12:37:57.035Z,19.10
2018-12-01T12:40:26.886Z,19.10
2018-12-01T12:42:56.864Z,19.10
2018-12-01T12:45:26.757Z,19.10
2018-12-01T12:50:24.291Z,19.20
2018-12-01T12:52:56.699Z,19.20
2018-12-01T12:55:26.534Z,19.20
2018-12-01T12:57:55.601Z,19.30
2018-12-01T13:00:26.919Z,19.30
2018-12-01T13:03:00.849Z,19.30
2018-12-01T13:05:33.180Z,19.40
2018-12-01T13:08:02.199Z,19.40
2018-12-01T13:10:31.692Z,19.40
2018-12-01T13:13:00.781Z,19.40
2018-12-01T13:15:29.528Z,19.40
2018-12-01T13:17:58.703Z,19.50
2018-12-01T13:20:28.253Z,19.50
2018-12-01T13:25:26.406Z,19.50
2018-12-01T13:27:58.011Z,19.50
2018-12-01T13:30:28.885Z,19.60
2018-12-01T13:32:58.007Z,19.60
2018-12-01T13:35:28.468Z,19.60
2018-12-01T13:37:57.941Z,19.60
2018-12-01T13:40:27.040Z,19.60
2018-12-01T13:42:56.632Z,19.60
2018-12-01T13:45:25.830Z,19.60
2018-12-01T13:47:55.234Z,19.60
2018-12-01T13:50:24.053Z,19.60
2018-12-01T13:52:54.987Z,19.70
2018-12-01T13:55:23.896Z,19.70
2018-12-01T13:57:53.515Z,19.70
2018-12-01T14:00:25.929Z,19.70
2018-12-01T14:02:55.176Z,19.80
2018-12-01T14:05:24.568Z,19.70
2018-12-01T14:07:53.673Z,19.80
2018-12-01T14:10:27.984Z,19.80
2018-12-01T14:13:00.531Z,19.80
2018-12-01T14:15:30.015Z,19.80
2018-12-01T14:17:58.925Z,19.80
2018-12-01T14:20:28.088Z,19.90
2018-12-01T14:22:57.115Z,19.90
2018-12-01T14:25:26.421Z,19.90
2018-12-01T14:28:01.144Z,19.90
2018-12-01T14:30:29.952Z,19.90
2018-12-01T14:32:58.777Z,19.90
2018-12-01T14:35:29.542Z,20.00
2018-12-01T14:38:04.707Z,20.00
2018-12-01T14:40:33.445Z,20.00
2018-12-01T14:43:03.094Z,20.00
2018-12-01T14:45:32.247Z,20.00
2018-12-01T14:48:01.279Z,20.10
2018-12-01T14:50:30.052Z,20.10
2018-12-01T14:52:59.888Z,20.20
2018-12-01T14:55:28.760Z,20.20
2018-12-01T14:57:57.636Z,20.20
2018-12-01T15:00:27.302Z,20.20
2018-12-01T15:02:56.846Z,20.30
2018-12-01T15:05:26.511Z,20.30
2018-12-01T15:07:55.319Z,20.30
2018-12-01T15:10:26.607Z,20.30
2018-12-01T15:12:55.819Z,20.30
2018-12-01T15:15:27.708Z,20.40
2018-12-01T15:17:56.669Z,20.40
2018-12-01T15:20:26.289Z,20.40
2018-12-01T15:22:57.310Z,20.40
2018-12-01T15:25:27.984Z,20.40
2018-12-01T15:27:57.662Z,20.50
2018-12-01T15:30:27.647Z,20.40
2018-12-01T15:33:15.064Z,20.50
2018-12-01T15:35:45.781Z,20.50
2018-12-01T15:38:15.405Z,20.50
2018-12-01T15:40:48.960Z,20.50
2018-12-01T15:43:18.391Z,20.50
2018-12-01T15:45:47.615Z,20.50
2018-12-01T15:48:16.731Z,20.60
2018-12-01T15:50:45.807Z,20.60
2018-12-01T15:53:16.152Z,20.60
2018-12-01T15:55:45.390Z,20.60
2018-12-01T15:58:15.039Z,20.70
2018-12-01T16:00:45.784Z,20.60
2018-12-01T16:03:14.508Z,20.70
2018-12-01T16:05:43.229Z,20.70
2018-12-01T16:08:13.570Z,20.70
2018-12-01T16:10:44.060Z,20.70
2018-12-01T16:13:17.803Z,20.70
2018-12-01T16:15:51.868Z,20.70
2018-12-01T16:18:20.841Z,20.70
2018-12-01T16:20:50.233Z,20.70
2018-12-01T16:23:19.840Z,20.70
2018-12-01T16:25:48.939Z,20.70
2018-12-01T16:28:18.098Z,20.70
2018-12-01T16:30:47.565Z,20.80
2018-12-01T16:33:20.200Z,20.70
2018-12-01T16:35:50.623Z,20.70
2018-12-01T16:38:23.891Z,20.80
2018-12-01T16:40:58.665Z,20.80
2018-12-01T16:43:29.577Z,20.80
2018-12-01T16:45:58.906Z,20.80
2018-12-01T16:48:28.944Z,20.80
2018-12-01T16:50:58.622Z,20.80
2018-12-01T16:53:28.834Z,20.80
2018-12-01T16:55:58.486Z,20.80
2018-12-01T16:58:27.631Z,20.80
2018-12-01T17:00:57.556Z,20.80
2018-12-01T17:05:57.894Z,20.80
2018-12-01T17:08:27.090Z,20.80
2018-12-01T17:10:56.901Z,20.80
2018-12-01T17:13:26.200Z,20.80
2018-12-01T17:15:55.816Z,20.80
2018-12-01T17:18:24.780Z,20.70
2018-12-01T17:20:54.406Z,20.70
2018-12-01T17:23:24.216Z,20.60
2018-12-01T17:25:54.226Z,20.60
2018-12-01T17:28:23.821Z,20.60
2018-12-01T17:30:53.752Z,20.60
2018-12-01T17:33:22.744Z,20.50
2018-12-01T17:35:52.555Z,20.50
2018-12-01T17:38:22.582Z,20.50
2018-12-01T17:40:57.178Z,20.50
2018-12-01T17:44:03.671Z,20.40
2018-12-01T17:46:36.073Z,20.40
2018-12-01T17:49:06.879Z,20.40
2018-12-01T17:51:37.205Z,20.30
2018-12-01T17:54:13.049Z,20.30
2018-12-01T17:56:42.843Z,20.30
2018-12-01T17:59:15.582Z,20.20
2018-12-01T18:01:44.859Z,20.20
2018-12-01T18:04:14.735Z,20.20
2018-12-01T18:09:13.088Z,20.10
2018-12-01T18:11:42.687Z,20.10
2018-12-01T18:14:12.662Z,20.00
2018-12-01T18:16:41.955Z,20.00
2018-12-01T18:19:11.312Z,20.00
2018-12-01T18:21:42.095Z,20.00
2018-12-01T18:24:11.723Z,20.00
2018-12-01T18:26:41.071Z,20.00
2018-12-01T18:29:10.611Z,20.00
2018-12-01T18:31:40.517Z,20.00
2018-12-01T18:34:12.096Z,20.00
2018-12-01T18:36:41.221Z,20.00
2018-12-01T18:39:13.150Z,20.00
2018-12-01T18:41:42.797Z,20.00
2018-12-01T18:44:11.570Z,20.00
2018-12-01T18:46:41.407Z,19.90
2018-12-01T18:49:11.105Z,19.90
2018-12-01T18:51:40.237Z,19.90
2018-12-01T18:54:09.704Z,19.80
2018-12-01T18:56:38.877Z,19.80
2018-12-01T18:59:08.351Z,19.80
2018-12-01T19:01:37.816Z,19.80
2018-12-01T19:04:07.238Z,19.70
2018-12-01T19:06:36.576Z,19.70
2018-12-01T19:09:08.115Z,19.70
2018-12-01T19:11:37.516Z,19.70
2018-12-01T19:14:07.152Z,19.70
2018-12-01T19:16:36.227Z,19.60
2018-12-01T19:19:05.331Z,19.60
2018-12-01T19:21:34.201Z,19.60
2018-12-01T19:24:03.614Z,19.60
2018-12-01T19:26:33.224Z,19.60
2018-12-01T19:29:02.487Z,19.50
2018-12-01T19:31:31.724Z,19.50
2018-12-01T19:34:00.550Z,19.50
2018-12-01T19:36:29.356Z,19.50
2018-12-01T19:38:58.916Z,19.50
2018-12-01T19:41:28.331Z,19.40
2018-12-01T19:43:57.772Z,19.40
2018-12-01T19:46:27.407Z,19.40
2018-12-01T19:48:56.929Z,19.40
2018-12-01T19:51:26.671Z,19.40
2018-12-01T19:53:56.260Z,19.40
2018-12-01T19:56:25.721Z,19.40
2018-12-01T19:58:55.177Z,19.40
2018-12-01T20:01:24.683Z,19.30
2018-12-01T20:03:54.100Z,19.30
2018-12-01T20:06:23.625Z,19.30
2018-12-01T20:08:53.318Z,19.30
2018-12-01T20:11:22.814Z,19.30
2018-12-01T20:13:52.437Z,19.30
2018-12-01T20:16:39.763Z,19.30
2018-12-01T20:21:38.186Z,19.20
2018-12-01T20:24:08.866Z,19.20
2018-12-01T20:26:39.426Z,19.20
2018-12-01T20:29:09.152Z,19.20
2018-12-01T20:31:38.668Z,19.10
2018-12-01T20:34:08.519Z,19.10
2018-12-01T20:37:15.039Z,19.10
2018-12-01T20:39:45.459Z,19.10
2018-12-01T20:42:14.741Z,19.10
2018-12-01T20:44:43.988Z,19.10
2018-12-01T20:47:13.523Z,19.00
2018-12-01T20:49:42.664Z,19.10
2018-12-01T20:52:12.191Z,19.00
2018-12-01T20:54:43.283Z,19.10
2018-12-01T20:57:15.829Z,19.00
2018-12-01T20:59:45.176Z,19.10
2018-12-01T21:02:14.609Z,19.10
2018-12-01T21:04:43.804Z,19.00
2018-12-01T21:07:13.183Z,19.00
2018-12-01T21:09:42.737Z,19.00
2018-12-01T21:12:13.280Z,19.00
2018-12-01T21:14:42.799Z,19.00
2018-12-01T21:17:11.960Z,19.00
2018-12-01T21:19:41.472Z,18.90
2018-12-01T21:22:11.252Z,18.90
2018-12-01T21:24:40.569Z,18.90
2018-12-01T21:29:38.612Z,18.90
2018-12-01T21:32:08.114Z,18.90
2018-12-01T21:34:37.688Z,18.90
2018-12-01T21:37:07.259Z,18.90
2018-12-01T21:39:36.424Z,18.90
2018-12-01T21:42:06.225Z,18.90
2018-12-01T21:44:35.736Z,18.90
2018-12-01T21:47:05.273Z,18.90
2018-12-01T21:49:34.700Z,18.90
2018-12-01T21:52:03.500Z,18.80
2018-12-01T21:54:33.196Z,18.80
2018-12-01T21:57:02.669Z,18.80
